createdAt,value
2023-01-22T00:01:31.366Z,7.27
2023-01-22T00:04:03.236Z,7.29
2023-01-22T00:06:38.180Z,7.29
2023-01-22T00:09:06.327Z,7.28
2023-01-22T00:11:36.340Z,7.28
2023-01-22T00:14:08.172Z,7.28
2023-01-22T00:16:41.754Z,7.26
2023-01-22T00:19:15.791Z,7.28
2023-01-22T00:21:49.048Z,7.27
2023-01-22T00:24:20.178Z,7.27
2023-01-22T00:26:51.245Z,7.30
2023-01-22T00:29:26.507Z,7.31
2023-01-22T00:31:56.236Z,7.31
2023-01-22T00:34:26.166Z,7.30
2023-01-22T00:36:55.962Z,7.31
2023-01-22T00:39:29.323Z,7.31
2023-01-22T00:42:07.165Z,7.34
2023-01-22T00:44:38.073Z,7.33
2023-01-22T00:47:06.425Z,7.33
2023-01-22T00:49:43.504Z,7.27
2023-01-22T00:52:17.423Z,7.28
2023-01-22T00:54:52.078Z,7.26
2023-01-22T00:57:27.341Z,7.26
2023-01-22T01:00:02.194Z,7.25
2023-01-22T01:02:32.782Z,7.27
2023-01-22T01:05:11.168Z,7.25
2023-01-22T01:07:42.761Z,7.29
2023-01-22T01:10:11.455Z,7.21
2023-01-22T01:12:42.022Z,7.23
2023-01-22T01:15:10.653Z,7.22
2023-01-22T01:17:42.003Z,7.19
2023-01-22T01:20:18.747Z,7.21
2023-01-22T01:22:53.193Z,7.19
2023-01-22T01:25:30.388Z,7.21
2023-01-22T01:28:07.184Z,7.21
2023-01-22T01:30:41.498Z,7.20
2023-01-22T01:33:10.200Z,7.18
2023-01-22T01:35:39.826Z,7.18
2023-01-22T01:38:08.169Z,7.18
2023-01-22T01:40:36.948Z,7.18
2023-01-22T01:43:05.541Z,7.17
2023-01-22T01:45:34.587Z,7.13
2023-01-22T01:48:07.555Z,7.14
2023-01-22T01:50:36.461Z,7.13
2023-01-22T01:53:06.401Z,7.13
2023-01-22T01:55:36.476Z,7.12
2023-01-22T01:58:06.519Z,7.11
2023-01-22T02:00:36.438Z,7.13
2023-01-22T02:03:05.252Z,7.07
2023-01-22T02:05:36.061Z,7.11
2023-01-22T02:08:06.853Z,7.12
2023-01-22T02:10:35.022Z,7.08
2023-01-22T02:13:07.630Z,7.11
2023-01-22T02:15:35.863Z,7.08
2023-01-22T02:18:05.662Z,7.10
2023-01-22T02:20:36.627Z,7.06
2023-01-22T02:23:05.236Z,7.04
2023-01-22T02:25:34.451Z,7.07
2023-01-22T02:28:03.255Z,7.04
2023-01-22T02:30:31.828Z,7.01
2023-01-22T02:33:00.089Z,7.05
2023-01-22T02:35:28.344Z,7.06
2023-01-22T02:37:58.396Z,7.08
2023-01-22T02:40:26.831Z,7.04
2023-01-22T02:42:55.545Z,7.06
2023-01-22T02:45:23.688Z,7.05
2023-01-22T02:47:53.033Z,7.04
2023-01-22T02:50:21.305Z,7.07
2023-01-22T02:52:49.519Z,7.05
2023-01-22T02:55:19.678Z,7.03
2023-01-22T02:57:47.785Z,7.05
2023-01-22T03:00:17.044Z,7.05
2023-01-22T03:02:45.487Z,7.05
2023-01-22T03:05:14.340Z,7.04
2023-01-22T03:07:45.362Z,7.05
2023-01-22T03:10:15.226Z,7.06
2023-01-22T03:13:03.319Z,7.04
2023-01-22T03:15:49.211Z,7.01
2023-01-22T03:18:35.255Z,7.04
2023-01-22T03:21:17.070Z,7.05
2023-01-22T03:23:46.096Z,7.06
2023-01-22T03:26:15.824Z,7.03
2023-01-22T03:28:46.475Z,7.04
2023-01-22T03:31:15.402Z,7.06
2023-01-22T03:33:44.273Z,7.07
2023-01-22T03:36:14.411Z,7.07
2023-01-22T03:38:47.725Z,7.05
2023-01-22T03:41:20.258Z,7.07
2023-01-22T03:43:51.394Z,7.08
2023-01-22T03:46:22.814Z,7.07
2023-01-22T03:48:55.213Z,7.08
2023-01-22T03:51:23.864Z,7.08
2023-01-22T03:53:52.078Z,7.10
2023-01-22T03:56:21.374Z,7.08
2023-01-22T03:58:52.622Z,7.09
2023-01-22T04:01:22.622Z,7.12
2023-01-22T04:03:51.902Z,7.15
2023-01-22T04:06:22.359Z,7.14
2023-01-22T04:08:51.625Z,7.14
2023-01-22T04:11:23.100Z,7.16
2023-01-22T04:13:52.946Z,7.14
2023-01-22T04:16:22.254Z,7.20
2023-01-22T04:19:25.571Z,7.16
2023-01-22T04:22:08.577Z,7.19
2023-01-22T04:24:37.172Z,7.17
2023-01-22T04:27:06.708Z,7.21
2023-01-22T04:29:36.471Z,7.26
2023-01-22T04:32:07.095Z,7.23
2023-01-22T04:34:53.904Z,7.28
2023-01-22T04:37:25.636Z,7.28
2023-01-22T04:39:54.076Z,7.26
2023-01-22T04:42:22.158Z,7.30
2023-01-22T04:44:52.071Z,7.32
2023-01-22T04:47:20.209Z,7.29
2023-01-22T04:49:48.552Z,7.33
2023-01-22T04:52:17.777Z,7.34
2023-01-22T04:54:46.106Z,7.35
2023-01-22T04:57:14.817Z,7.34
2023-01-22T04:59:43.032Z,7.33
2023-01-22T05:02:12.948Z,7.39
2023-01-22T05:04:41.404Z,7.34
2023-01-22T05:07:09.589Z,7.34
2023-01-22T05:09:38.634Z,7.32
2023-01-22T05:12:07.218Z,7.30
2023-01-22T05:14:41.431Z,7.28
2023-01-22T05:17:10.155Z,7.27
2023-01-22T05:19:39.874Z,7.30
2023-01-22T05:22:13.228Z,7.32
2023-01-22T05:24:41.488Z,7.24
2023-01-22T05:27:10.064Z,7.30
2023-01-22T05:29:49.216Z,7.26
2023-01-22T05:32:40.162Z,7.26
2023-01-22T05:35:11.008Z,7.25
2023-01-22T05:37:40.799Z,7.27
2023-01-22T05:40:09.896Z,7.31
2023-01-22T05:42:38.349Z,7.30
2023-01-22T05:45:08.277Z,7.32
2023-01-22T05:47:41.280Z,7.29
2023-01-22T05:50:33.633Z,7.33
2023-01-22T05:53:10.499Z,7.35
2023-01-22T05:55:39.432Z,7.35
2023-01-22T05:58:07.619Z,7.34
2023-01-22T06:00:36.980Z,7.39
2023-01-22T06:03:09.271Z,7.35
2023-01-22T06:05:47.431Z,7.38
2023-01-22T06:08:16.558Z,7.37
2023-01-22T06:10:51.972Z,7.41
2023-01-22T06:13:21.220Z,7.41
2023-01-22T06:15:54.771Z,7.42
2023-01-22T06:18:43.104Z,7.42
2023-01-22T06:21:14.273Z,7.37
2023-01-22T06:23:42.911Z,7.42
2023-01-22T06:26:11.021Z,7.43
2023-01-22T06:28:40.265Z,7.42
2023-01-22T06:31:08.624Z,7.42
2023-01-22T06:33:38.837Z,7.40
2023-01-22T06:36:07.573Z,7.43
2023-01-22T06:38:38.177Z,7.42
2023-01-22T06:41:08.846Z,7.44
2023-01-22T06:43:37.735Z,7.45
2023-01-22T06:46:06.741Z,7.44
2023-01-22T06:48:55.218Z,7.46
2023-01-22T06:51:23.630Z,7.46
2023-01-22T06:53:53.912Z,7.45
2023-01-22T06:56:22.182Z,7.47
2023-01-22T06:58:51.196Z,7.51
2023-01-22T07:01:19.612Z,7.50
2023-01-22T07:03:47.868Z,7.53
2023-01-22T07:06:18.889Z,7.53
2023-01-22T07:08:47.030Z,7.56
2023-01-22T07:11:16.876Z,7.54
2023-01-22T07:13:45.301Z,7.60
2023-01-22T07:16:13.492Z,7.60
2023-01-22T07:18:41.551Z,7.65
2023-01-22T07:21:09.887Z,7.66
2023-01-22T07:23:38.077Z,7.63
2023-01-22T07:26:06.325Z,7.65
2023-01-22T07:28:35.916Z,7.71
2023-01-22T07:31:05.424Z,7.68
2023-01-22T07:33:33.832Z,7.72
2023-01-22T07:36:02.348Z,7.70
2023-01-22T07:38:31.212Z,7.71
2023-01-22T07:41:02.099Z,7.73
2023-01-22T07:43:30.626Z,7.70
2023-01-22T07:46:01.970Z,7.75
2023-01-22T07:48:30.247Z,7.72
2023-01-22T07:51:00.325Z,7.73
2023-01-22T07:53:28.981Z,7.76
2023-01-22T07:55:57.167Z,7.75
2023-01-22T07:58:25.516Z,7.75
2023-01-22T08:00:53.638Z,7.77
2023-01-22T08:03:23.444Z,7.79
2023-01-22T08:05:51.803Z,7.82
2023-01-22T08:08:21.644Z,7.82
2023-01-22T08:10:49.793Z,7.83
2023-01-22T08:13:17.977Z,7.84
2023-01-22T08:15:46.727Z,7.83
2023-01-22T08:18:15.356Z,7.86
2023-01-22T08:20:45.993Z,7.85
2023-01-22T08:23:14.373Z,7.88
2023-01-22T08:25:42.854Z,7.87
2023-01-22T08:28:11.049Z,7.88
2023-01-22T08:30:46.218Z,7.87
2023-01-22T08:33:16.009Z,7.89
2023-01-22T08:35:46.128Z,7.91
2023-01-22T08:38:14.495Z,7.94
2023-01-22T08:40:42.628Z,7.92
2023-01-22T08:43:10.718Z,7.95
2023-01-22T08:45:39.076Z,7.94
2023-01-22T08:48:07.494Z,7.98
2023-01-22T08:50:35.956Z,8.00
2023-01-22T08:53:05.697Z,8.02
2023-01-22T08:55:33.948Z,8.02
2023-01-22T08:58:02.229Z,8.03
2023-01-22T09:00:30.590Z,8.05
2023-01-22T09:03:00.203Z,8.09
2023-01-22T09:05:28.760Z,8.10
2023-01-22T09:07:56.944Z,8.12
2023-01-22T09:10:26.639Z,8.12
2023-01-22T09:12:55.116Z,8.17
2023-01-22T09:15:23.464Z,8.19
2023-01-22T09:17:51.659Z,8.18
2023-01-22T09:20:20.567Z,8.19
2023-01-22T09:22:49.009Z,8.21
2023-01-22T09:25:17.232Z,8.24
2023-01-22T09:27:46.948Z,8.27
2023-01-22T09:30:16.130Z,8.26
2023-01-22T09:32:44.856Z,8.28
2023-01-22T09:35:15.552Z,8.29
2023-01-22T09:37:44.704Z,8.34
2023-01-22T09:40:20.604Z,8.36
2023-01-22T09:42:50.676Z,8.37
2023-01-22T09:45:21.020Z,8.39
2023-01-22T09:47:51.209Z,8.43
2023-01-22T09:50:21.240Z,8.42
2023-01-22T09:52:51.121Z,8.43
2023-01-22T09:55:20.502Z,8.43
2023-01-22T09:57:49.592Z,8.46
2023-01-22T10:00:22.175Z,8.49
2023-01-22T10:02:54.020Z,8.54
2023-01-22T10:05:25.633Z,8.54
2023-01-22T10:07:55.859Z,8.60
2023-01-22T10:10:24.768Z,8.60
2023-01-22T10:12:55.039Z,8.60
2023-01-22T10:15:25.692Z,8.60
2023-01-22T10:17:56.852Z,8.64
2023-01-22T10:20:25.545Z,8.66
2023-01-22T10:22:55.482Z,8.67
2023-01-22T10:25:23.653Z,8.65
2023-01-22T10:27:58.421Z,8.72
2023-01-22T10:30:28.853Z,8.76
2023-01-22T10:33:01.200Z,8.80
2023-01-22T10:35:30.992Z,8.75
2023-01-22T10:37:59.669Z,8.78
2023-01-22T10:40:31.039Z,8.84
2023-01-22T10:43:03.243Z,8.92
2023-01-22T10:45:33.394Z,8.95
2023-01-22T10:48:05.485Z,8.98
2023-01-22T10:50:34.184Z,9.06
2023-01-22T10:53:04.196Z,9.07
2023-01-22T10:55:34.423Z,9.20
2023-01-22T10:58:04.118Z,9.20
2023-01-22T11:00:51.832Z,9.19
2023-01-22T11:03:22.570Z,9.18
2023-01-22T11:05:54.648Z,9.22
2023-01-22T11:08:25.718Z,9.26
2023-01-22T11:10:56.771Z,9.24
2023-01-22T11:13:27.244Z,9.30
2023-01-22T11:16:00.590Z,9.29
2023-01-22T11:18:31.697Z,9.28
2023-01-22T11:21:00.931Z,9.26
2023-01-22T11:23:34.898Z,9.31
2023-01-22T11:26:07.212Z,9.31
2023-01-22T11:28:41.885Z,9.37
2023-01-22T11:31:25.193Z,9.39
2023-01-22T11:34:18.614Z,9.38
2023-01-22T11:36:49.107Z,9.44
2023-01-22T11:39:23.991Z,9.43
2023-01-22T11:41:57.553Z,9.45
2023-01-22T11:44:40.598Z,9.48
2023-01-22T11:47:21.133Z,9.51
2023-01-22T11:49:58.170Z,9.57
2023-01-22T11:52:34.914Z,9.63
2023-01-22T11:55:11.921Z,9.64
2023-01-22T11:57:43.608Z,9.67
2023-01-22T12:00:22.855Z,9.63
2023-01-22T12:03:01.905Z,9.66
2023-01-22T12:05:37.924Z,9.72
2023-01-22T12:08:14.836Z,9.74
2023-01-22T12:10:54.870Z,9.78
2023-01-22T12:13:28.992Z,9.82
2023-01-22T12:16:04.615Z,9.89
2023-01-22T12:18:57.608Z,9.99
2023-01-22T12:21:34.579Z,10.01
2023-01-22T12:24:05.400Z,10.08
2023-01-22T12:26:35.547Z,10.15
2023-01-22T12:29:06.412Z,10.19
2023-01-22T12:31:37.223Z,10.25
2023-01-22T12:34:08.209Z,10.28
2023-01-22T12:36:38.240Z,10.30
2023-01-22T12:39:11.533Z,10.28
2023-01-22T12:41:45.683Z,10.24
2023-01-22T12:44:33.155Z,10.12
2023-01-22T12:47:09.374Z,10.10
2023-01-22T12:49:46.004Z,10.05
2023-01-22T12:52:48.233Z,9.95
2023-01-22T12:55:24.134Z,9.98
2023-01-22T12:57:52.381Z,9.91
2023-01-22T13:00:30.666Z,9.96
2023-01-22T13:02:59.666Z,9.93
2023-01-22T13:05:47.293Z,9.97
2023-01-22T13:08:28.474Z,9.96
2023-01-22T13:10:58.029Z,10.02
2023-01-22T13:13:29.370Z,10.03
2023-01-22T13:16:00.470Z,10.04
2023-01-22T13:18:31.643Z,10.07
2023-01-22T13:21:02.915Z,10.08
2023-01-22T13:23:34.749Z,10.07
2023-01-22T13:26:04.297Z,10.17
2023-01-22T13:28:32.702Z,10.21
2023-01-22T13:31:02.240Z,10.23
2023-01-22T13:33:30.505Z,10.26
2023-01-22T13:35:59.509Z,10.30
2023-01-22T13:38:29.838Z,10.29
2023-01-22T13:41:00.873Z,10.30
2023-01-22T13:43:29.792Z,10.32
2023-01-22T13:45:58.427Z,10.36
2023-01-22T13:48:27.489Z,10.35
2023-01-22T13:50:57.059Z,10.38
2023-01-22T13:53:27.329Z,10.40
2023-01-22T13:55:55.804Z,10.45
2023-01-22T13:58:49.641Z,10.38
2023-01-22T14:01:31.271Z,10.37
2023-01-22T14:04:01.246Z,10.39
2023-01-22T14:06:31.636Z,10.35
2023-01-22T14:09:00.217Z,10.36
2023-01-22T14:11:38.866Z,10.38
2023-01-22T14:14:17.718Z,10.32
2023-01-22T14:16:48.287Z,10.30
2023-01-22T14:19:16.513Z,10.32
2023-01-22T14:21:45.638Z,10.28
2023-01-22T14:24:15.965Z,10.27
2023-01-22T14:26:44.215Z,10.30
2023-01-22T14:29:12.399Z,10.34
2023-01-22T14:31:42.178Z,10.31
2023-01-22T14:34:11.246Z,10.33
2023-01-22T14:36:39.831Z,10.31
2023-01-22T14:39:07.858Z,10.36
2023-01-22T14:41:35.992Z,10.33
2023-01-22T14:44:04.624Z,10.29
2023-01-22T14:46:32.674Z,10.27
2023-01-22T14:49:03.384Z,10.19
2023-01-22T14:51:32.345Z,10.26
2023-01-22T14:54:00.898Z,10.18
2023-01-22T14:56:29.416Z,10.16
2023-01-22T14:58:58.317Z,10.15
2023-01-22T15:01:26.463Z,10.13
2023-01-22T15:03:56.107Z,10.14
2023-01-22T15:06:27.289Z,10.11
2023-01-22T15:08:55.475Z,10.14
2023-01-22T15:11:26.532Z,10.10
2023-01-22T15:13:55.821Z,10.08
2023-01-22T15:16:25.106Z,10.09
2023-01-22T15:18:55.073Z,10.04
2023-01-22T15:21:25.866Z,10.02
2023-01-22T15:23:53.998Z,9.91
2023-01-22T15:26:24.845Z,9.95
2023-01-22T15:28:53.736Z,9.90
2023-01-22T15:31:22.158Z,9.95
2023-01-22T15:33:51.163Z,9.95
2023-01-22T15:36:19.390Z,9.93
2023-01-22T15:38:50.992Z,9.92
2023-01-22T15:41:20.344Z,9.91
2023-01-22T15:43:51.055Z,9.91
2023-01-22T15:46:20.219Z,9.93
2023-01-22T15:48:49.771Z,9.92
2023-01-22T15:51:19.264Z,9.91
2023-01-22T15:53:52.242Z,9.84
2023-01-22T15:56:21.016Z,9.84
2023-01-22T15:58:51.287Z,9.77
2023-01-22T16:01:20.135Z,9.83
2023-01-22T16:03:48.360Z,9.90
2023-01-22T16:06:18.066Z,9.90
2023-01-22T16:08:47.067Z,9.91
2023-01-22T16:11:17.119Z,9.92
2023-01-22T16:13:45.331Z,9.92
2023-01-22T16:16:17.205Z,9.94
2023-01-22T16:18:46.027Z,9.79
2023-01-22T16:21:14.784Z,9.81
2023-01-22T16:23:47.062Z,9.73
2023-01-22T16:26:17.720Z,9.70
2023-01-22T16:28:46.266Z,9.65
2023-01-22T16:31:17.460Z,9.69
2023-01-22T16:33:46.643Z,9.63
2023-01-22T16:36:15.681Z,9.65
2023-01-22T16:38:43.843Z,9.63
2023-01-22T16:41:25.624Z,9.62
2023-01-22T16:43:54.735Z,9.65
2023-01-22T16:46:24.162Z,9.56
2023-01-22T16:48:56.722Z,9.54
2023-01-22T16:51:25.742Z,9.50
2023-01-22T16:53:54.683Z,9.48
2023-01-22T16:56:24.311Z,9.50
2023-01-22T16:58:52.414Z,9.43
2023-01-22T17:01:20.703Z,9.41
2023-01-22T17:03:49.440Z,9.39
2023-01-22T17:06:23.323Z,9.40
2023-01-22T17:08:52.177Z,9.39
2023-01-22T17:11:20.820Z,9.32
2023-01-22T17:13:50.417Z,9.37
2023-01-22T17:16:18.940Z,9.38
2023-01-22T17:18:47.041Z,9.38
2023-01-22T17:21:15.970Z,9.35
2023-01-22T17:23:44.185Z,9.28
2023-01-22T17:26:13.486Z,9.31
2023-01-22T17:28:41.789Z,9.28
2023-01-22T17:31:12.144Z,9.23
2023-01-22T17:33:40.582Z,9.24
2023-01-22T17:36:10.527Z,9.27
2023-01-22T17:38:38.961Z,9.25
2023-01-22T17:41:08.847Z,9.19
2023-01-22T17:43:38.744Z,9.19
2023-01-22T17:46:12.428Z,9.19
2023-01-22T17:48:40.995Z,9.18
2023-01-22T17:51:10.114Z,9.15
2023-01-22T17:53:39.295Z,9.20
2023-01-22T17:56:10.573Z,9.13
2023-01-22T17:58:42.130Z,9.12
2023-01-22T18:01:12.961Z,9.10
2023-01-22T18:03:41.350Z,9.13
2023-01-22T18:06:10.084Z,9.11
2023-01-22T18:08:39.640Z,9.11
2023-01-22T18:11:08.633Z,9.11
2023-01-22T18:13:38.127Z,9.10
2023-01-22T18:16:07.577Z,9.13
2023-01-22T18:18:37.267Z,9.11
2023-01-22T18:21:06.968Z,9.17
2023-01-22T18:23:35.010Z,9.09
2023-01-22T18:26:04.908Z,9.07
2023-01-22T18:28:33.493Z,9.09
2023-01-22T18:31:04.946Z,9.12
2023-01-22T18:33:34.362Z,9.10
2023-01-22T18:36:07.094Z,9.10
2023-01-22T18:38:36.809Z,9.11
2023-01-22T18:41:06.079Z,9.11
2023-01-22T18:43:34.163Z,9.07
2023-01-22T18:46:05.873Z,9.06
2023-01-22T18:48:33.994Z,9.08
2023-01-22T18:51:04.173Z,9.08
2023-01-22T18:53:32.841Z,9.10
2023-01-22T18:56:04.155Z,9.15
2023-01-22T18:58:34.293Z,9.08
2023-01-22T19:01:08.948Z,9.05
2023-01-22T19:03:37.933Z,9.03
2023-01-22T19:06:13.669Z,9.07
2023-01-22T19:08:42.989Z,9.08
2023-01-22T19:11:12.355Z,9.11
2023-01-22T19:13:41.148Z,9.07
2023-01-22T19:16:11.043Z,9.09
2023-01-22T19:18:40.219Z,9.12
2023-01-22T19:21:12.066Z,9.12
2023-01-22T19:23:41.246Z,9.12
2023-01-22T19:26:10.961Z,9.06
2023-01-22T19:28:39.943Z,9.10
2023-01-22T19:31:16.483Z,9.10
2023-01-22T19:33:44.743Z,9.07
2023-01-22T19:36:16.602Z,9.04
2023-01-22T19:38:45.268Z,9.01
2023-01-22T19:41:13.488Z,9.07
2023-01-22T19:43:42.112Z,9.08
2023-01-22T19:46:11.825Z,9.02
2023-01-22T19:48:40.186Z,9.05
2023-01-22T19:51:09.937Z,9.01
2023-01-22T19:53:39.800Z,9.02
2023-01-22T19:56:16.666Z,9.04
2023-01-22T19:58:44.979Z,9.06
2023-01-22T20:01:13.746Z,9.00
2023-01-22T20:03:41.892Z,9.03
2023-01-22T20:06:11.193Z,9.02
2023-01-22T20:08:40.973Z,9.03
2023-01-22T20:11:10.016Z,9.03
2023-01-22T20:13:38.943Z,9.03
2023-01-22T20:16:07.941Z,9.03
2023-01-22T20:18:36.540Z,9.06
2023-01-22T20:21:05.047Z,9.03
2023-01-22T20:23:33.150Z,9.04
2023-01-22T20:26:07.724Z,9.04
2023-01-22T20:28:35.953Z,9.02
2023-01-22T20:31:05.281Z,9.01
2023-01-22T20:33:33.963Z,8.99
2023-01-22T20:36:05.161Z,8.98
2023-01-22T20:38:33.651Z,8.96
2023-01-22T20:41:04.828Z,8.93
2023-01-22T20:43:33.686Z,8.98
2023-01-22T20:46:02.769Z,8.97
2023-01-22T20:48:32.199Z,8.99
2023-01-22T20:51:00.294Z,8.99
2023-01-22T20:53:29.107Z,8.98
2023-01-22T20:56:03.263Z,8.99
2023-01-22T20:58:33.063Z,8.99
2023-01-22T21:01:04.549Z,8.95
2023-01-22T21:03:32.903Z,8.94
2023-01-22T21:06:08.735Z,8.99
2023-01-22T21:08:41.049Z,8.99
2023-01-22T21:11:12.320Z,8.97
2023-01-22T21:13:42.373Z,9.02
2023-01-22T21:16:12.240Z,9.01
2023-01-22T21:18:45.555Z,8.99
2023-01-22T21:21:17.760Z,9.03
2023-01-22T21:23:46.413Z,8.99
2023-01-22T21:26:15.718Z,9.00
2023-01-22T21:28:46.384Z,8.96
2023-01-22T21:31:15.639Z,9.01
2023-01-22T21:33:44.613Z,9.02
2023-01-22T21:36:13.533Z,9.05
2023-01-22T21:38:41.976Z,9.04
2023-01-22T21:41:12.360Z,9.01
2023-01-22T21:43:59.110Z,9.01
2023-01-22T21:46:31.145Z,8.98
2023-01-22T21:49:01.437Z,9.03
2023-01-22T21:51:30.351Z,9.00
2023-01-22T21:53:59.733Z,8.97
2023-01-22T21:56:32.638Z,9.03
2023-01-22T21:59:02.936Z,9.01
2023-01-22T22:01:34.392Z,9.02
2023-01-22T22:04:02.637Z,9.04
2023-01-22T22:06:31.576Z,8.99
2023-01-22T22:09:01.301Z,9.00
2023-01-22T22:11:30.071Z,9.04
2023-01-22T22:13:58.305Z,9.01
2023-01-22T22:16:27.002Z,9.05
2023-01-22T22:18:57.762Z,9.00
2023-01-22T22:21:26.821Z,9.03
2023-01-22T22:23:58.073Z,9.05
2023-01-22T22:26:27.075Z,8.99
2023-01-22T22:28:55.855Z,8.99
2023-01-22T22:31:26.732Z,8.98
2023-01-22T22:33:57.834Z,8.98
2023-01-22T22:36:31.566Z,9.00
2023-01-22T22:39:06.542Z,9.00
2023-01-22T22:41:36.248Z,8.97
2023-01-22T22:44:04.539Z,8.96
2023-01-22T22:46:33.366Z,8.94
2023-01-22T22:49:03.142Z,8.94
2023-01-22T22:51:35.291Z,8.95
2023-01-22T22:54:05.631Z,8.99
2023-01-22T22:56:33.887Z,8.98
2023-01-22T22:59:03.334Z,8.97
2023-01-22T23:01:33.777Z,8.96
2023-01-22T23:04:02.379Z,8.95
2023-01-22T23:06:32.030Z,8.95
2023-01-22T23:09:12.450Z,8.94
2023-01-22T23:11:42.077Z,8.94
2023-01-22T23:14:10.941Z,8.93
2023-01-22T23:16:44.939Z,8.87
2023-01-22T23:19:15.874Z,8.87
2023-01-22T23:21:44.331Z,8.94
2023-01-22T23:24:15.594Z,8.92
2023-01-22T23:26:44.896Z,8.90
2023-01-22T23:29:15.591Z,8.98
2023-01-22T23:31:48.782Z,8.91
2023-01-22T23:34:22.241Z,8.92
2023-01-22T23:36:50.769Z,8.96
2023-01-22T23:39:21.392Z,8.97
2023-01-22T23:41:49.843Z,8.94
2023-01-22T23:44:17.916Z,8.96
2023-01-22T23:46:46.077Z,8.91
2023-01-22T23:49:14.373Z,8.97
2023-01-22T23:51:44.435Z,8.93
2023-01-22T23:54:13.085Z,8.97
2023-01-22T23:56:42.932Z,8.93
2023-01-22T23:59:11.522Z,8.95
